Time;durP1;ratioP1;P1;durP2;ratioP2;P2;SDS_P1;SDS_P2;PMS_P1;PMS_P2;Temp;Humidity;BMP_temperature;BMP_pressure;BME280_temperature;BME280_humidity;BME280_pressure;Samples;Min_cycle;Max_cycle;Signal;HPM_P1;HPM_P2
2021/03/23 00:01:57;;;;;;;;;8.00;7.00;;;;;;;;5069026;27;113943;-74
2021/03/23 00:04:23;;;;;;;;;10.33;7.00;;;;;;;;5066928;27;112647;-75
2021/03/23 00:06:49;;;;;;;;;12.00;10.00;;;;;;;;5069346;27;113793;-75
2021/03/23 00:09:16;;;;;;;;;8.00;8.00;;;;;;;;5071465;27;114059;-75
2021/03/23 00:11:42;;;;;;;;;9.00;7.67;;;;;;;;5068288;27;113929;-75
2021/03/23 00:14:10;;;;;;;;;9.33;9.33;;;;;;;;5068439;27;113963;-74
2021/03/23 00:16:37;;;;;;;;;11.67;10.00;;;;;;;;5067502;27;112132;-74
2021/03/23 00:19:04;;;;;;;;;10.67;8.00;;;;;;;;5069725;27;113597;-75
2021/03/23 00:21:31;;;;;;;;;15.33;13.67;;;;;;;;5066263;27;114612;-75
2021/03/23 00:23:57;;;;;;;;;13.00;11.00;;;;;;;;5067272;27;112078;-75
2021/03/23 00:26:23;;;;;;;;;7.67;6.00;;;;;;;;5069552;27;114807;-75
2021/03/23 00:28:50;;;;;;;;;17.67;12.33;;;;;;;;5066584;27;114105;-75
2021/03/23 00:31:17;;;;;;;;;14.33;11.67;;;;;;;;5072572;27;112139;-75
2021/03/23 00:33:43;;;;;;;;;10.67;10.00;;;;;;;;5067223;27;114572;-75
2021/03/23 00:36:10;;;;;;;;;10.67;10.67;;;;;;;;5067583;27;112799;-75
2021/03/23 00:38:38;;;;;;;;;9.33;9.33;;;;;;;;5068737;27;113451;-74
2021/03/23 00:41:04;;;;;;;;;8.00;8.00;;;;;;;;5065589;27;114357;-74
2021/03/23 00:43:30;;;;;;;;;12.00;10.00;;;;;;;;5069848;27;111884;-74
2021/03/23 00:45:56;;;;;;;;;10.00;10.00;;;;;;;;5066553;27;113769;-75
2021/03/23 00:48:23;;;;;;;;;10.67;8.00;;;;;;;;5068406;27;114139;-74
2021/03/23 00:50:49;;;;;;;;;9.67;8.33;;;;;;;;5067301;27;113117;-74
2021/03/23 00:53:15;;;;;;;;;11.00;10.67;;;;;;;;5071808;27;113608;-74
2021/03/23 00:55:41;;;;;;;;;10.33;10.00;;;;;;;;5068074;27;111923;-74
2021/03/23 00:58:07;;;;;;;;;9.33;8.00;;;;;;;;5066931;27;113993;-74
2021/03/23 01:00:34;;;;;;;;;8.33;8.33;;;;;;;;5067530;27;113904;-74
2021/03/23 01:03:00;;;;;;;;;10.00;9.67;;;;;;;;5070840;27;112826;-73
2021/03/23 01:05:30;;;;;;;;;9.00;7.00;;;;;;;;5069302;27;113797;-75
2021/03/23 01:07:56;;;;;;;;;11.00;9.00;;;;;;;;5065311;27;112750;-73
2021/03/23 01:10:23;;;;;;;;;10.00;10.00;;;;;;;;5068860;27;112232;-73
2021/03/23 01:12:49;;;;;;;;;10.67;9.00;;;;;;;;5066352;27;113728;-73
2021/03/23 01:15:16;;;;;;;;;7.00;6.33;;;;;;;;5071444;27;113866;-73
2021/03/23 01:17:42;;;;;;;;;7.00;5.33;;;;;;;;5067049;27;113676;-73
2021/03/23 01:20:10;;;;;;;;;12.00;9.00;;;;;;;;5066690;27;114087;-73
2021/03/23 01:22:38;;;;;;;;;10.00;10.00;;;;;;;;5068160;27;112022;-74
2021/03/23 01:25:04;;;;;;;;;8.33;8.33;;;;;;;;5066694;27;113510;-73
2021/03/23 01:27:30;;;;;;;;;8.33;8.33;;;;;;;;5068381;27;113949;-73
2021/03/23 01:29:56;;;;;;;;;9.67;7.67;;;;;;;;5065859;27;112065;-72
2021/03/23 01:32:22;;;;;;;;;9.00;9.00;;;;;;;;5068550;27;113607;-73
2021/03/23 01:34:48;;;;;;;;;10.00;10.00;;;;;;;;5062577;27;113121;-73
2021/03/23 01:37:15;;;;;;;;;11.67;9.33;;;;;;;;5076183;27;112974;-73
2021/03/23 01:39:42;;;;;;;;;9.00;7.00;;;;;;;;5067329;27;114163;-73
2021/03/23 01:42:09;;;;;;;;;10.00;10.00;;;;;;;;5068099;27;112587;-73
2021/03/23 01:44:37;;;;;;;;;9.00;9.00;;;;;;;;5066130;27;113698;-74
2021/03/23 01:47:04;;;;;;;;;10.00;10.00;;;;;;;;5067790;27;114202;-73
2021/03/23 01:49:33;;;;;;;;;9.00;7.67;;;;;;;;5065282;27;111842;-73
2021/03/23 01:52:02;;;;;;;;;9.00;9.00;;;;;;;;5069017;27;113562;-73
2021/03/23 01:54:30;;;;;;;;;7.00;6.00;;;;;;;;5064754;27;114335;-73
2021/03/23 01:56:59;;;;;;;;;9.33;7.00;;;;;;;;5069162;27;112154;-73
2021/03/23 01:59:25;;;;;;;;;13.00;9.67;;;;;;;;5068066;27;114972;-73
2021/03/23 02:01:52;;;;;;;;;10.33;9.33;;;;;;;;5065821;27;111987;-72
2021/03/23 02:04:18;;;;;;;;;12.33;9.00;;;;;;;;5068069;27;113709;-72
2021/03/23 02:06:45;;;;;;;;;10.00;10.00;;;;;;;;5065988;27;114233;-72
2021/03/23 02:09:12;;;;;;;;;11.67;9.33;;;;;;;;5066414;27;111883;-73
2021/03/23 02:11:41;;;;;;;;;8.33;7.67;;;;;;;;5069055;27;113549;-72
2021/03/23 02:14:10;;;;;;;;;14.33;10.00;;;;;;;;5067414;27;113552;-72
2021/03/23 02:16:36;;;;;;;;;10.67;9.00;;;;;;;;5065638;27;112012;-72
2021/03/23 02:19:02;;;;;;;;;11.00;9.00;;;;;;;;5070755;27;113790;-72
2021/03/23 02:21:29;;;;;;;;;5.67;3.00;;;;;;;;5069564;27;111971;-72
2021/03/23 02:23:55;;;;;;;;;6.33;5.67;;;;;;;;5064582;27;113695;-72
2021/03/23 02:26:24;;;;;;;;;7.00;6.00;;;;;;;;5069567;27;114269;-73
2021/03/23 02:28:55;;;;;;;;;7.00;7.00;;;;;;;;5068964;27;112296;-72
2021/03/23 02:31:23;;;;;;;;;7.67;6.33;;;;;;;;5071045;27;114213;-72
2021/03/23 02:33:49;;;;;;;;;8.33;8.33;;;;;;;;5069085;27;114154;-72
2021/03/23 02:36:15;;;;;;;;;6.33;6.33;;;;;;;;5070146;27;111977;-72
2021/03/23 02:38:42;;;;;;;;;7.00;6.33;;;;;;;;5069631;27;113582;-72
2021/03/23 02:41:08;;;;;;;;;9.33;6.33;;;;;;;;5072367;27;115307;-72
2021/03/23 02:43:34;;;;;;;;;10.00;9.00;;;;;;;;5071978;27;113891;-73
2021/03/23 02:46:00;;;;;;;;;7.00;6.00;;;;;;;;5067281;27;114006;-72
2021/03/23 02:48:26;;;;;;;;;7.00;7.00;;;;;;;;5067638;27;112018;-73
2021/03/23 02:50:52;;;;;;;;;6.00;6.00;;;;;;;;5068470;27;113514;-72
2021/03/23 02:53:18;;;;;;;;;9.00;7.00;;;;;;;;5069818;27;114200;-73
2021/03/23 02:55:45;;;;;;;;;7.67;6.00;;;;;;;;5070206;27;111916;-73
2021/03/23 02:58:11;;;;;;;;;9.00;6.33;;;;;;;;5069418;27;114367;-73
2021/03/23 03:00:37;;;;;;;;;9.00;5.33;;;;;;;;5069695;27;114061;-72
2021/03/23 03:03:03;;;;;;;;;6.00;6.00;;;;;;;;5072794;27;112498;-73
2021/03/23 03:05:29;;;;;;;;;10.33;6.00;;;;;;;;5071055;27;113965;-73
2021/03/23 03:07:55;;;;;;;;;2.00;2.00;;;;;;;;5071249;27;111818;-73
2021/03/23 03:10:21;;;;;;;;;5.00;5.00;;;;;;;;5070666;27;113855;-73
2021/03/23 03:12:48;;;;;;;;;7.00;7.00;;;;;;;;5072414;27;114303;-73
2021/03/23 03:15:14;;;;;;;;;5.67;5.00;;;;;;;;5069620;27;111905;-73
2021/03/23 03:17:40;;;;;;;;;6.00;6.00;;;;;;;;5070083;27;113564;-73
2021/03/23 03:20:07;;;;;;;;;7.00;7.00;;;;;;;;5067037;27;114185;-73
2021/03/23 03:22:33;;;;;;;;;6.00;5.00;;;;;;;;5071535;27;112105;-73
2021/03/23 03:24:59;;;;;;;;;7.00;7.00;;;;;;;;5070889;27;113463;-72
2021/03/23 03:27:25;;;;;;;;;6.67;6.67;;;;;;;;5070535;27;112724;-73
2021/03/23 03:29:52;;;;;;;;;7.33;7.33;;;;;;;;5068160;27;114196;-73
2021/03/23 03:32:18;;;;;;;;;6.00;5.67;;;;;;;;5069292;27;114455;-73
2021/03/23 03:34:44;;;;;;;;;8.33;7.67;;;;;;;;5068971;27;111981;-73
2021/03/23 03:37:10;;;;;;;;;7.33;7.33;;;;;;;;5068554;27;112392;-73
2021/03/23 03:39:36;;;;;;;;;11.33;10.00;;;;;;;;5064679;27;113282;-72
2021/03/23 03:42:02;;;;;;;;;9.00;9.00;;;;;;;;5071196;27;112644;-72
2021/03/23 03:44:28;;;;;;;;;11.33;7.67;;;;;;;;5067738;27;113755;-73
2021/03/23 03:46:55;;;;;;;;;8.00;7.00;;;;;;;;5073642;27;114068;-73
2021/03/23 03:49:21;;;;;;;;;8.00;8.00;;;;;;;;5068236;27;114088;-73
2021/03/23 03:51:47;;;;;;;;;10.00;10.00;;;;;;;;5068492;27;113985;-73
2021/03/23 03:54:12;;;;;;;;;6.67;6.67;;;;;;;;5069413;27;111975;-72
2021/03/23 03:56:38;;;;;;;;;13.33;8.67;;;;;;;;5068702;27;113384;-75
2021/03/23 03:59:04;;;;;;;;;8.33;8.33;;;;;;;;5069323;27;113848;-73
2021/03/23 04:01:30;;;;;;;;;7.67;7.00;;;;;;;;5066803;27;111953;-72
2021/03/23 04:03:57;;;;;;;;;10.00;7.33;;;;;;;;5071055;27;113397;-73
2021/03/23 04:06:23;;;;;;;;;6.00;6.00;;;;;;;;5073476;27;114357;-73
2021/03/23 04:08:49;;;;;;;;;6.00;6.00;;;;;;;;5068011;27;114011;-72
2021/03/23 04:11:15;;;;;;;;;8.00;8.00;;;;;;;;5067766;27;114003;-73
2021/03/23 04:13:41;;;;;;;;;7.67;6.67;;;;;;;;5070214;27;111810;-73
2021/03/23 04:16:07;;;;;;;;;8.00;6.00;;;;;;;;5070472;27;113878;-73
2021/03/23 04:18:33;;;;;;;;;8.00;8.00;;;;;;;;5069699;27;114588;-72
2021/03/23 04:21:02;;;;;;;;;10.67;9.00;;;;;;;;5066415;27;112095;-72
2021/03/23 04:23:29;;;;;;;;;8.33;7.33;;;;;;;;5067075;27;113713;-73
2021/03/23 04:25:55;;;;;;;;;7.33;7.33;;;;;;;;5061885;27;112943;-72
2021/03/23 04:28:21;;;;;;;;;8.67;8.67;;;;;;;;5073040;27;112839;-73
2021/03/23 04:30:47;;;;;;;;;10.00;8.00;;;;;;;;5067320;27;113557;-72
2021/03/23 04:33:13;;;;;;;;;6.00;5.67;;;;;;;;5068187;27;111913;-73
2021/03/23 04:35:44;;;;;;;;;9.33;9.33;;;;;;;;5068752;27;113501;-74
2021/03/23 04:38:12;;;;;;;;;8.67;5.00;;;;;;;;5066446;27;114319;-74
2021/03/23 04:40:38;;;;;;;;;8.67;6.00;;;;;;;;5068968;27;112392;-74
2021/03/23 04:43:05;;;;;;;;;6.00;6.00;;;;;;;;5066711;27;113523;-75
2021/03/23 07:18:39;;;;;;;;;3.00;1.00;;;;;;;;5053838;27;112236;-76
2021/03/23 07:21:11;;;;;;;;;0.33;0.33;;;;;;;;5048617;27;119378;-81
2021/03/23 07:23:39;;;;;;;;;0.67;0.00;;;;;;;;5050120;27;112190;-76
2021/03/23 07:26:18;;;;;;;;;0.33;0.00;;;;;;;;5052426;27;113389;-76
2021/03/23 07:28:44;;;;;;;;;0.00;0.00;;;;;;;;5051949;27;114413;-73
2021/03/23 07:31:16;;;;;;;;;6.00;1.00;;;;;;;;5051992;27;112437;-74
2021/03/23 07:33:47;;;;;;;;;0.00;0.00;;;;;;;;5052620;27;113696;-74
2021/03/23 07:36:14;;;;;;;;;1.00;0.00;;;;;;;;5050612;27;114342;-78
2021/03/23 07:38:43;;;;;;;;;0.00;0.00;;;;;;;;5056586;27;112163;-74
2021/03/23 07:41:16;;;;;;;;;0.00;0.00;;;;;;;;5050666;27;115380;-74
2021/03/23 07:43:46;;;;;;;;;0.00;0.00;;;;;;;;5052743;27;112271;-73
2021/03/23 07:46:13;;;;;;;;;1.00;0.00;;;;;;;;5045641;27;118163;-74
2021/03/23 07:48:43;;;;;;;;;1.00;1.00;;;;;;;;5050045;27;112720;-73
2021/03/23 07:51:23;;;;;;;;;0.00;0.00;;;;;;;;5050064;27;113384;-76
2021/03/23 07:53:49;;;;;;;;;0.00;0.00;;;;;;;;5050280;27;113528;-75
2021/03/23 07:56:24;;;;;;;;;0.00;0.00;;;;;;;;5052308;27;114541;-75
2021/03/23 07:58:57;;;;;;;;;1.00;0.00;;;;;;;;5053158;27;112716;-72
2021/03/23 08:01:29;;;;;;;;;0.00;0.00;;;;;;;;5056538;27;113808;-74
2021/03/23 08:04:05;;;;;;;;;1.00;1.00;;;;;;;;5049535;27;111934;-73
2021/03/23 08:06:38;;;;;;;;;1.67;1.67;;;;;;;;5048918;27;113555;-73
2021/03/23 08:09:23;;;;;;;;;1.00;1.00;;;;;;;;5046605;27;114121;-73
2021/03/23 08:11:54;;;;;;;;;1.00;1.00;;;;;;;;5050934;27;111821;-74
2021/03/23 08:14:28;;;;;;;;;0.33;0.00;;;;;;;;5051193;27;113567;-73
2021/03/23 08:17:04;;;;;;;;;0.00;0.00;;;;;;;;5049601;27;114304;-73
2021/03/23 08:19:40;;;;;;;;;1.00;1.00;;;;;;;;5047321;27;113618;-73
2021/03/23 08:22:16;;;;;;;;;0.67;0.00;;;;;;;;5050113;27;113644;-73
2021/03/23 08:24:48;;;;;;;;;1.00;1.00;;;;;;;;5053612;27;114237;-75
2021/03/23 08:27:38;;;;;;;;;2.00;1.00;;;;;;;;5048219;27;114019;-75
2021/03/23 08:30:10;;;;;;;;;0.67;0.00;;;;;;;;5014670;27;114224;-74
2021/03/23 08:32:40;;;;;;;;;1.00;1.00;;;;;;;;5036578;27;113253;-75
2021/03/23 08:35:39;;;;;;;;;1.00;0.00;;;;;;;;5036455;27;113669;-72
2021/03/23 08:38:21;;;;;;;;;4.75;0.75;;;;;;;;4952986;28;114370;-73
2021/03/23 08:40:53;;;;;;;;;1.00;1.00;;;;;;;;4952517;28;113261;-72
2021/03/23 08:43:27;;;;;;;;;0.75;0.75;;;;;;;;5002268;27;113404;-70
2021/03/23 08:45:54;;;;;;;;;0.25;0.25;;;;;;;;5035884;27;114609;-71
2021/03/23 08:48:29;;;;;;;;;2.00;1.00;;;;;;;;5041086;27;111893;-72
2021/03/23 08:51:00;;;;;;;;;2.25;1.00;;;;;;;;5035798;27;113978;-73
2021/03/23 08:53:47;;;;;;;;;0.50;0.50;;;;;;;;5037471;27;111921;-72
2021/03/23 08:56:14;;;;;;;;;1.00;1.00;;;;;;;;5021075;27;112535;-72
2021/03/23 08:58:42;;;;;;;;;1.25;1.25;;;;;;;;5035003;27;114261;-72
2021/03/23 09:01:29;;;;;;;;;1.00;1.00;;;;;;;;5037534;27;112659;-72
2021/03/23 09:04:15;;;;;;;;;1.00;1.00;;;;;;;;5036989;27;113590;-71
2021/03/23 09:06:47;;;;;;;;;2.00;1.00;;;;;;;;5036716;27;113899;-73
2021/03/23 09:09:21;;;;;;;;;3.00;2.00;;;;;;;;5038829;27;111789;-72
2021/03/23 09:12:01;;;;;;;;;1.00;1.00;;;;;;;;5042045;27;113642;-73
2021/03/23 09:14:30;;;;;;;;;1.00;1.00;;;;;;;;5034743;27;111879;-73
2021/03/23 09:17:11;;;;;;;;;5.00;3.00;;;;;;;;5032717;27;113732;-72
2021/03/23 09:19:41;;;;;;;;;2.00;2.00;;;;;;;;5037885;27;114242;-72
2021/03/23 09:22:25;;;;;;;;;2.67;2.00;;;;;;;;5037860;27;112380;-70
2021/03/23 09:25:07;;;;;;;;;1.00;1.00;;;;;;;;5037317;27;113446;-72
2021/03/23 09:27:51;;;;;;;;;3.00;3.00;;;;;;;;5036692;27;114367;-71
2021/03/23 09:30:36;;;;;;;;;3.00;2.00;;;;;;;;5036879;27;111905;-71
2021/03/23 09:33:17;;;;;;;;;2.00;2.00;;;;;;;;5035267;27;113457;-70
2021/03/23 09:35:58;;;;;;;;;4.33;3.00;;;;;;;;5037197;27;113767;-71
2021/03/23 09:38:31;;;;;;;;;3.00;1.67;;;;;;;;5036485;27;113458;-71
2021/03/23 09:41:00;;;;;;;;;1.33;0.33;;;;;;;;5035606;27;112716;-72
2021/03/23 09:43:30;;;;;;;;;2.00;2.00;;;;;;;;5035267;27;111936;-71
2021/03/23 09:45:59;;;;;;;;;4.00;3.00;;;;;;;;5030294;27;113492;-71
2021/03/23 09:48:40;;;;;;;;;2.00;2.00;;;;;;;;5034938;27;114457;-71
2021/03/23 09:51:12;;;;;;;;;2.75;2.75;;;;;;;;5033086;27;113141;-68
2021/03/23 09:53:41;;;;;;;;;1.25;1.25;;;;;;;;5035689;27;113988;-67
2021/03/23 09:56:12;;;;;;;;;4.00;3.00;;;;;;;;5038653;27;114005;-67
2021/03/23 09:58:39;;;;;;;;;1.50;1.50;;;;;;;;5035845;27;113543;-73
2021/03/23 10:01:17;;;;;;;;;1.00;1.00;;;;;;;;5032588;27;112918;-69
2021/03/23 10:03:43;;;;;;;;;2.50;1.00;;;;;;;;5034568;27;112003;-67
2021/03/23 10:06:11;;;;;;;;;2.50;2.00;;;;;;;;5032031;27;113378;-68
2021/03/23 10:08:37;;;;;;;;;2.00;2.00;;;;;;;;5035544;27;114126;-69
2021/03/23 10:11:12;;;;;;;;;2.00;2.00;;;;;;;;5035662;27;112160;-69
2021/03/23 10:13:38;;;;;;;;;3.00;2.00;;;;;;;;5036082;27;113619;-69
2021/03/23 10:16:07;;;;;;;;;2.00;2.00;;;;;;;;5034404;27;114462;-71
2021/03/23 10:18:39;;;;;;;;;1.00;1.00;;;;;;;;5039328;27;112026;-74
2021/03/23 10:21:07;;;;;;;;;3.67;1.00;;;;;;;;5031788;27;114943;-74
2021/03/23 10:23:34;;;;;;;;;0.67;0.67;;;;;;;;5036233;27;112597;-72
2021/03/23 10:26:03;;;;;;;;;1.00;1.00;;;;;;;;5034692;27;113424;-73
2021/03/23 10:28:32;;;;;;;;;2.00;2.00;;;;;;;;5033325;27;114504;-74
2021/03/23 10:30:59;;;;;;;;;2.00;1.00;;;;;;;;5034619;27;112676;-72
2021/03/23 10:33:28;;;;;;;;;3.00;2.67;;;;;;;;5035145;27;113505;-72
2021/03/23 10:35:55;;;;;;;;;3.00;3.00;;;;;;;;5034124;27;114356;-73
2021/03/23 10:38:23;;;;;;;;;1.00;1.00;;;;;;;;5034333;27;112300;-73
2021/03/23 10:40:50;;;;;;;;;2.33;2.00;;;;;;;;5037659;27;113773;-71
2021/03/23 10:43:28;;;;;;;;;1.00;1.00;;;;;;;;5035466;27;112055;-72
2021/03/23 10:45:55;;;;;;;;;2.00;2.00;;;;;;;;5034412;27;113576;-73
2021/03/23 10:48:24;;;;;;;;;3.75;3.75;;;;;;;;5034592;27;114246;-71
2021/03/23 10:51:05;;;;;;;;;3.00;3.00;;;;;;;;5034403;27;113294;-71
2021/03/23 10:53:31;;;;;;;;;2.50;2.00;;;;;;;;5031746;27;113602;-72
2021/03/23 10:55:57;;;;;;;;;3.00;2.00;;;;;;;;5034137;27;114097;-71
2021/03/23 10:58:24;;;;;;;;;2.50;2.00;;;;;;;;5035425;27;112399;-71
2021/03/23 11:00:51;;;;;;;;;3.00;2.00;;;;;;;;5035151;27;113337;-72
2021/03/23 11:03:32;;;;;;;;;3.00;2.00;;;;;;;;5038441;27;114064;-72
2021/03/23 11:05:58;;;;;;;;;2.50;2.00;;;;;;;;5034383;27;112374;-71
2021/03/23 11:08:24;;;;;;;;;2.75;2.75;;;;;;;;5035064;27;114913;-72
2021/03/23 11:10:51;;;;;;;;;2.00;2.00;;;;;;;;5034956;27;111881;-71
2021/03/23 11:13:18;;;;;;;;;3.00;2.25;;;;;;;;5035372;27;113560;-72
2021/03/23 11:15:46;;;;;;;;;4.00;1.50;;;;;;;;5033665;27;114100;-70
2021/03/23 11:18:16;;;;;;;;;2.00;2.00;;;;;;;;5034258;27;114618;-69
2021/03/23 11:20:43;;;;;;;;;3.25;3.00;;;;;;;;5034876;27;114003;-71
2021/03/23 11:23:20;;;;;;;;;2.00;2.00;;;;;;;;5026468;27;113938;-72
2021/03/23 11:25:46;;;;;;;;;2.00;2.00;;;;;;;;5036581;27;111833;-70
2021/03/23 11:28:16;;;;;;;;;2.00;2.00;;;;;;;;5031918;27;113988;-70
2021/03/23 11:30:42;;;;;;;;;2.50;2.50;;;;;;;;5033453;27;112106;-75
2021/03/23 11:33:08;;;;;;;;;3.00;3.00;;;;;;;;5033414;27;113852;-74
2021/03/23 11:35:34;;;;;;;;;4.00;2.00;;;;;;;;5033762;27;114073;-72
2021/03/23 11:38:01;;;;;;;;;2.00;2.00;;;;;;;;5034686;27;112036;-74
2021/03/23 11:40:27;;;;;;;;;1.00;1.00;;;;;;;;5030828;27;114785;-76
2021/03/23 11:42:53;;;;;;;;;2.50;2.00;;;;;;;;5033961;27;114381;-79
2021/03/23 11:45:22;;;;;;;;;2.00;2.00;;;;;;;;5039527;27;111941;-74
2021/03/23 11:47:54;;;;;;;;;1.00;1.00;;;;;;;;5033572;27;115028;-72
2021/03/23 11:50:22;;;;;;;;;2.00;2.00;;;;;;;;5034679;27;112004;-73
2021/03/23 11:52:49;;;;;;;;;2.75;1.50;;;;;;;;5034333;27;112484;-74
2021/03/23 11:55:18;;;;;;;;;1.75;1.50;;;;;;;;5034223;27;114315;-74
2021/03/23 11:57:44;;;;;;;;;1.75;1.75;;;;;;;;5033156;27;112277;-73
2021/03/23 12:00:12;;;;;;;;;2.00;2.00;;;;;;;;5033009;27;113501;-74
2021/03/23 12:02:39;;;;;;;;;1.00;1.00;;;;;;;;5032583;27;114123;-73
2021/03/23 12:05:07;;;;;;;;;2.50;1.00;;;;;;;;5035818;27;111996;-76
2021/03/23 12:07:40;;;;;;;;;2.00;2.00;;;;;;;;5039874;27;114973;-76
2021/03/23 12:10:10;;;;;;;;;2.00;1.25;;;;;;;;5035204;27;111938;-71
2021/03/23 12:12:40;;;;;;;;;2.00;1.75;;;;;;;;5037667;27;113522;-70
2021/03/23 12:15:10;;;;;;;;;3.00;2.00;;;;;;;;5034551;27;114266;-72
2021/03/23 12:17:37;;;;;;;;;2.00;2.00;;;;;;;;5036413;27;111941;-68
2021/03/23 12:20:05;;;;;;;;;2.00;2.00;;;;;;;;5036116;27;113531;-68
2021/03/23 12:22:31;;;;;;;;;2.75;2.00;;;;;;;;5036538;27;114084;-71
2021/03/23 12:24:57;;;;;;;;;2.00;2.00;;;;;;;;5036488;27;111968;-68
2021/03/23 12:27:24;;;;;;;;;1.50;1.50;;;;;;;;5037264;27;113468;-68
2021/03/23 12:29:51;;;;;;;;;1.00;1.00;;;;;;;;5039507;27;114023;-68
2021/03/23 12:32:18;;;;;;;;;1.00;1.00;;;;;;;;5038069;27;113736;-68
2021/03/23 12:34:44;;;;;;;;;0.00;0.00;;;;;;;;5036118;27;114125;-68
2021/03/23 12:37:10;;;;;;;;;2.00;2.00;;;;;;;;5035487;27;111918;-69
2021/03/23 12:39:37;;;;;;;;;1.00;1.00;;;;;;;;5036667;27;114173;-69
2021/03/23 12:42:03;;;;;;;;;1.50;1.50;;;;;;;;5036830;27;114201;-67
2021/03/23 12:44:29;;;;;;;;;1.25;1.25;;;;;;;;5037356;27;112092;-68
2021/03/23 12:46:56;;;;;;;;;1.50;1.00;;;;;;;;5036040;27;113205;-68
2021/03/23 12:49:22;;;;;;;;;0.00;0.00;;;;;;;;5036083;27;114242;-68
2021/03/23 12:51:50;;;;;;;;;1.00;1.00;;;;;;;;5041384;27;111998;-68
2021/03/23 12:54:17;;;;;;;;;2.00;2.00;;;;;;;;5036498;27;114253;-69
2021/03/23 12:56:45;;;;;;;;;1.00;1.00;;;;;;;;5037773;27;113125;-71
2021/03/23 12:59:17;;;;;;;;;0.50;0.50;;;;;;;;5035941;27;117086;-68
2021/03/23 13:01:42;;;;;;;;;1.00;1.00;;;;;;;;5035997;27;114463;-70
2021/03/23 13:04:10;;;;;;;;;1.50;1.50;;;;;;;;5036621;27;113447;-70
2021/03/23 13:06:36;;;;;;;;;0.50;0.50;;;;;;;;5034988;27;113607;-69
2021/03/23 13:09:03;;;;;;;;;1.00;1.00;;;;;;;;5035728;27;114245;-70
2021/03/23 13:11:29;;;;;;;;;2.75;1.00;;;;;;;;5036372;27;112378;-71
2021/03/23 13:13:59;;;;;;;;;1.25;1.00;;;;;;;;5040593;27;113467;-71
2021/03/23 13:16:25;;;;;;;;;2.00;2.00;;;;;;;;5036556;27;111893;-73
2021/03/23 13:18:52;;;;;;;;;1.00;1.00;;;;;;;;5034485;27;113623;-69
2021/03/23 13:21:23;;;;;;;;;1.00;1.00;;;;;;;;5035670;27;114086;-69
2021/03/23 13:23:52;;;;;;;;;0.75;0.75;;;;;;;;5036196;27;113075;-69
2021/03/23 13:26:19;;;;;;;;;1.00;1.00;;;;;;;;5036150;27;113654;-69
2021/03/23 13:28:49;;;;;;;;;0.00;0.00;;;;;;;;5036885;27;114037;-71
2021/03/23 13:31:16;;;;;;;;;1.00;1.00;;;;;;;;5037366;27;113521;-69
2021/03/23 13:33:44;;;;;;;;;1.75;0.25;;;;;;;;5037362;27;113518;-69
2021/03/23 13:36:22;;;;;;;;;0.75;0.75;;;;;;;;5038509;27;114123;-70
2021/03/23 13:38:48;;;;;;;;;1.25;1.00;;;;;;;;5036869;27;113194;-70
2021/03/23 13:41:14;;;;;;;;;1.00;1.00;;;;;;;;5035551;27;116845;-69
2021/03/23 13:43:40;;;;;;;;;1.00;1.00;;;;;;;;5037096;27;112748;-70
2021/03/23 13:46:09;;;;;;;;;1.00;1.00;;;;;;;;5036184;27;113381;-70
2021/03/23 13:48:35;;;;;;;;;1.00;1.00;;;;;;;;5034129;27;114436;-69
2021/03/23 13:51:03;;;;;;;;;2.00;0.75;;;;;;;;5032798;27;113902;-70
2021/03/23 13:53:33;;;;;;;;;1.00;1.00;;;;;;;;5035791;27;113512;-70
2021/03/23 13:56:02;;;;;;;;;2.50;1.00;;;;;;;;5038864;27;114084;-69
2021/03/23 13:58:28;;;;;;;;;1.00;1.00;;;;;;;;5036683;27;113549;-69
2021/03/23 14:00:54;;;;;;;;;1.25;1.00;;;;;;;;5034284;27;114432;-70
2021/03/23 14:03:20;;;;;;;;;2.00;2.00;;;;;;;;5035770;27;112083;-69
2021/03/23 14:05:46;;;;;;;;;1.00;1.00;;;;;;;;5034769;27;114014;-69
2021/03/23 14:08:15;;;;;;;;;0.25;0.25;;;;;;;;5033699;27;114399;-69
2021/03/23 14:10:43;;;;;;;;;0.50;0.50;;;;;;;;5034588;27;112251;-70
2021/03/23 14:13:10;;;;;;;;;0.50;0.50;;;;;;;;5034561;27;113751;-70
2021/03/23 14:15:37;;;;;;;;;1.00;1.00;;;;;;;;5031491;27;114390;-70
2021/03/23 14:18:05;;;;;;;;;1.00;1.00;;;;;;;;5037372;27;112263;-70
2021/03/23 14:20:31;;;;;;;;;1.75;1.00;;;;;;;;5035083;27;114158;-69
2021/03/23 14:22:58;;;;;;;;;0.00;0.00;;;;;;;;5034096;27;112198;-70
2021/03/23 14:25:27;;;;;;;;;0.00;0.00;;;;;;;;5034977;27;113400;-69
2021/03/23 14:27:53;;;;;;;;;1.50;1.00;;;;;;;;5033216;27;114098;-69
2021/03/23 14:30:22;;;;;;;;;1.00;1.00;;;;;;;;5034675;27;111971;-69
2021/03/23 14:32:49;;;;;;;;;2.00;0.75;;;;;;;;5034923;27;113629;-68
2021/03/23 14:35:15;;;;;;;;;1.50;0.00;;;;;;;;5030678;27;114176;-68
2021/03/23 14:37:43;;;;;;;;;2.00;1.00;;;;;;;;5034362;27;112074;-68
2021/03/23 14:40:13;;;;;;;;;0.75;0.75;;;;;;;;5037321;27;113608;-67
2021/03/23 14:42:39;;;;;;;;;0.00;0.00;;;;;;;;5032988;27;112043;-67
2021/03/23 14:45:07;;;;;;;;;1.25;1.25;;;;;;;;5034134;27;113409;-68
2021/03/23 14:47:34;;;;;;;;;1.00;1.00;;;;;;;;5033606;27;114720;-67
2021/03/23 14:50:00;;;;;;;;;1.00;1.00;;;;;;;;5034878;27;112208;-67
2021/03/23 14:52:26;;;;;;;;;1.00;1.00;;;;;;;;5035543;27;113314;-67
2021/03/23 14:54:53;;;;;;;;;1.00;1.00;;;;;;;;5033469;27;114171;-68
2021/03/23 14:57:20;;;;;;;;;0.75;0.75;;;;;;;;5035558;27;112106;-68
2021/03/23 14:59:46;;;;;;;;;1.00;1.00;;;;;;;;5035329;27;113824;-68
2021/03/23 15:02:13;;;;;;;;;1.00;1.00;;;;;;;;5037313;27;114241;-68
2021/03/23 15:04:40;;;;;;;;;1.50;1.00;;;;;;;;5035344;27;113985;-69
2021/03/23 15:07:06;;;;;;;;;1.25;1.25;;;;;;;;5033958;27;114072;-68
2021/03/23 15:09:32;;;;;;;;;1.00;1.00;;;;;;;;5035318;27;112526;-68
2021/03/23 15:11:59;;;;;;;;;0.75;0.00;;;;;;;;5034347;27;113907;-68
2021/03/23 15:14:25;;;;;;;;;1.00;1.00;;;;;;;;5035019;27;114020;-69
2021/03/23 15:16:51;;;;;;;;;1.00;1.00;;;;;;;;5034444;27;113792;-70
2021/03/23 15:19:17;;;;;;;;;0.00;0.00;;;;;;;;5034528;27;113324;-69
2021/03/23 15:21:44;;;;;;;;;1.25;1.25;;;;;;;;5034309;27;114310;-69
2021/03/23 15:24:17;;;;;;;;;1.00;1.00;;;;;;;;5038526;27;112893;-70
2021/03/23 15:26:43;;;;;;;;;0.00;0.00;;;;;;;;5033819;27;114297;-69
2021/03/23 15:29:15;;;;;;;;;1.00;1.00;;;;;;;;5034396;27;111858;-69
2021/03/23 15:31:41;;;;;;;;;1.50;1.50;;;;;;;;5035615;27;113606;-70
2021/03/23 15:34:08;;;;;;;;;1.00;1.00;;;;;;;;5033393;27;114054;-69
2021/03/23 15:36:35;;;;;;;;;1.50;1.50;;;;;;;;5034756;27;111960;-69
2021/03/23 15:39:06;;;;;;;;;1.00;1.00;;;;;;;;5035593;27;113494;-69
2021/03/23 15:41:32;;;;;;;;;0.00;0.00;;;;;;;;5037851;27;114833;-68
2021/03/23 15:43:58;;;;;;;;;1.00;1.00;;;;;;;;5037886;27;112178;-68
2021/03/23 15:46:24;;;;;;;;;1.00;1.00;;;;;;;;5040800;27;113499;-68
2021/03/23 15:48:50;;;;;;;;;1.00;1.00;;;;;;;;5038528;27;112082;-69
2021/03/23 15:51:24;;;;;;;;;1.25;1.25;;;;;;;;5035874;27;114006;-71
2021/03/23 15:53:51;;;;;;;;;0.00;0.00;;;;;;;;5037943;27;114215;-70
2021/03/23 15:56:23;;;;;;;;;1.00;1.00;;;;;;;;5035691;27;112846;-70
2021/03/23 15:58:49;;;;;;;;;2.00;2.00;;;;;;;;5037648;27;113684;-70
2021/03/23 16:01:14;;;;;;;;;1.00;1.00;;;;;;;;5035409;27;113901;-71
2021/03/23 16:03:40;;;;;;;;;1.25;1.25;;;;;;;;5035225;27;111904;-70
2021/03/23 16:06:07;;;;;;;;;1.50;1.00;;;;;;;;5040213;27;113837;-71
2021/03/23 16:08:34;;;;;;;;;1.00;1.00;;;;;;;;5038069;27;112084;-71
2021/03/23 16:11:01;;;;;;;;;0.50;0.50;;;;;;;;5037985;27;113520;-72
2021/03/23 16:13:28;;;;;;;;;1.00;1.00;;;;;;;;5037565;27;114247;-72
2021/03/23 16:15:54;;;;;;;;;3.00;2.00;;;;;;;;5036995;27;111999;-71
2021/03/23 16:18:20;;;;;;;;;0.00;0.00;;;;;;;;5036762;27;113636;-71
2021/03/23 16:20:46;;;;;;;;;1.00;1.00;;;;;;;;5036294;27;114211;-70
2021/03/23 16:23:21;;;;;;;;;1.75;1.75;;;;;;;;5037230;27;114201;-67
2021/03/23 16:25:47;;;;;;;;;0.25;0.00;;;;;;;;5034418;27;113497;-67
2021/03/23 16:28:17;;;;;;;;;1.00;1.00;;;;;;;;5040585;27;113998;-71
2021/03/23 16:30:44;;;;;;;;;0.25;0.25;;;;;;;;5037578;27;113423;-68
2021/03/23 16:33:11;;;;;;;;;1.00;1.00;;;;;;;;5036039;27;114299;-70
2021/03/23 16:35:38;;;;;;;;;0.00;0.00;;;;;;;;5036623;27;112004;-70
2021/03/23 16:38:04;;;;;;;;;0.50;0.50;;;;;;;;5036531;27;114087;-71
2021/03/23 16:40:31;;;;;;;;;0.00;0.00;;;;;;;;5036767;27;114068;-71
2021/03/23 16:42:58;;;;;;;;;2.00;1.00;;;;;;;;5036407;27;113704;-71
2021/03/23 16:45:27;;;;;;;;;2.00;1.00;;;;;;;;5035693;27;113499;-71
2021/03/23 16:47:54;;;;;;;;;1.00;0.00;;;;;;;;5035621;27;114783;-71
2021/03/23 16:50:21;;;;;;;;;1.00;1.00;;;;;;;;5040415;27;112017;-72
2021/03/23 16:52:47;;;;;;;;;1.00;1.00;;;;;;;;5035862;27;114024;-69
2021/03/23 16:55:27;;;;;;;;;0.00;0.00;;;;;;;;5033264;27;114133;-70
2021/03/23 16:57:53;;;;;;;;;0.25;0.25;;;;;;;;5031211;27;113412;-69
2021/03/23 17:00:20;;;;;;;;;2.00;1.50;;;;;;;;5035817;27;114409;-70
2021/03/23 17:02:46;;;;;;;;;1.75;0.50;;;;;;;;5036679;27;112079;-69
2021/03/23 17:05:14;;;;;;;;;1.50;1.50;;;;;;;;5037473;27;113506;-71
2021/03/23 17:07:40;;;;;;;;;2.00;2.00;;;;;;;;5035577;27;114058;-70
2021/03/23 17:10:07;;;;;;;;;3.00;2.00;;;;;;;;5037686;27;111978;-69